sensor_id;sensor_type;location;lat;lon;timestamp;pressure;altitude;pressure_sealevel;temperature;humidity
40982;BME280;26708;50.304;19.028;2023-04-20T00:00:12;98543.97;;;9.24;67.01
40982;BME280;26708;50.304;19.028;2023-04-20T00:02:18;98537.84;;;9.21;67.05
40982;BME280;26708;50.304;19.028;2023-04-20T00:04:23;98518.69;;;9.02;67.41
40982;BME280;26708;50.304;19.028;2023-04-20T00:06:27;98539.63;;;9.17;67.57
40982;BME280;26708;50.304;19.028;2023-04-20T00:08:33;98478.63;;;8.79;67.31
40982;BME280;26708;50.304;19.028;2023-04-20T00:10:38;98546.56;;;9.12;67.52
40982;BME280;26708;50.304;19.028;2023-04-20T00:12:43;98539.56;;;9.13;67.90
40982;BME280;26708;50.304;19.028;2023-04-20T00:14:48;98542.22;;;9.14;67.73
40982;BME280;26708;50.304;19.028;2023-04-20T00:16:56;98534.41;;;9.17;67.91
40982;BME280;26708;50.304;19.028;2023-04-20T00:19:00;98538.72;;;9.17;67.53
40982;BME280;26708;50.304;19.028;2023-04-20T00:21:06;98541.34;;;9.12;68.01
40982;BME280;26708;50.304;19.028;2023-04-20T00:23:10;98513.44;;;8.99;67.92
40982;BME280;26708;50.304;19.028;2023-04-20T00:25:15;98534.38;;;9.14;68.21
40982;BME280;26708;50.304;19.028;2023-04-20T00:27:20;98450.75;;;8.72;68.25
40982;BME280;26708;50.304;19.028;2023-04-20T00:29:25;98534.41;;;9.22;68.06
40982;BME280;26708;50.304;19.028;2023-04-20T00:31:31;98536.13;;;9.26;67.98
40982;BME280;26708;50.304;19.028;2023-04-20T00:33:39;98531.78;;;9.29;68.04
40982;BME280;26708;50.304;19.028;2023-04-20T00:35:44;98534.41;;;9.31;67.82
40982;BME280;26708;50.304;19.028;2023-04-20T00:37:50;98541.38;;;9.32;68.08
40982;BME280;26708;50.304;19.028;2023-04-20T00:39:56;98462.09;;;8.97;67.99
40982;BME280;26708;50.304;19.028;2023-04-20T00:42:04;98526.56;;;9.32;67.77
40982;BME280;26708;50.304;19.028;2023-04-20T00:44:10;98520.47;;;9.27;67.91
40982;BME280;26708;50.304;19.028;2023-04-20T00:46:15;98526.56;;;9.29;68.04
40982;BME280;26708;50.304;19.028;2023-04-20T00:48:20;98524.84;;;9.30;68.23
40982;BME280;26708;50.304;19.028;2023-04-20T00:50:27;98527.44;;;9.31;68.21
40982;BME280;26708;50.304;19.028;2023-04-20T00:52:33;98525.72;;;9.33;68.09
40982;BME280;26708;50.304;19.028;2023-04-20T00:54:38;98525.72;;;9.33;68.24
40982;BME280;26708;50.304;19.028;2023-04-20T00:56:43;98523.97;;;9.34;68.13
40982;BME280;26708;50.304;19.028;2023-04-20T00:58:49;98497.84;;;9.20;67.99
40982;BME280;26708;50.304;19.028;2023-04-20T01:00:54;98505.69;;;9.25;68.24
40982;BME280;26708;50.304;19.028;2023-04-20T01:02:58;98498.69;;;9.21;68.02
40982;BME280;26708;50.304;19.028;2023-04-20T01:05:04;98522.22;;;9.31;68.19
40982;BME280;26708;50.304;19.028;2023-04-20T01:07:13;98454.28;;;8.89;68.35
40982;BME280;26708;50.304;19.028;2023-04-20T01:09:17;98491.75;;;9.14;68.39
40982;BME280;26708;50.304;19.028;2023-04-20T01:11:22;98510.91;;;9.28;68.40
40982;BME280;26708;50.304;19.028;2023-04-20T01:13:27;98507.44;;;9.27;68.38
40982;BME280;26708;50.304;19.028;2023-04-20T01:15:32;98504.81;;;9.32;68.54
40982;BME280;26708;50.304;19.028;2023-04-20T01:17:38;98511.78;;;9.36;68.38
40982;BME280;26708;50.304;19.028;2023-04-20T01:19:43;98509.19;;;9.39;68.29
40982;BME280;26708;50.304;19.028;2023-04-20T01:21:49;98409.91;;;8.86;68.05
40982;BME280;26708;50.304;19.028;2023-04-20T01:23:57;98389.88;;;8.76;68.07
40982;BME280;26708;50.304;19.028;2023-04-20T01:26:05;98510.06;;;9.42;68.08
40982;BME280;26708;50.304;19.028;2023-04-20T01:28:11;98444.72;;;9.09;67.98
40982;BME280;26708;50.304;19.028;2023-04-20T01:30:16;98456.91;;;9.09;67.92
40982;BME280;26708;50.304;19.028;2023-04-20T01:32:20;98515.28;;;9.42;68.07
40982;BME280;26708;50.304;19.028;2023-04-20T01:34:25;98517.88;;;9.41;68.08
40982;BME280;26708;50.304;19.028;2023-04-20T01:36:30;98511.78;;;9.40;68.22
40982;BME280;26708;50.304;19.028;2023-04-20T01:38:35;98515.25;;;9.44;68.05
40982;BME280;26708;50.304;19.028;2023-04-20T01:40:43;98395.97;;;8.78;67.99
40982;BME280;26708;50.304;19.028;2023-04-20T01:42:48;98510.91;;;9.47;68.14
40982;BME280;26708;50.304;19.028;2023-04-20T01:44:52;98504.84;;;9.51;68.13
40982;BME280;26708;50.304;19.028;2023-04-20T01:46:58;98501.38;;;9.54;67.92
40982;BME280;26708;50.304;19.028;2023-04-20T01:49:02;98508.34;;;9.56;67.73
40982;BME280;26708;50.304;19.028;2023-04-20T01:51:07;98504.84;;;9.56;67.63
40982;BME280;26708;50.304;19.028;2023-04-20T01:53:12;98508.31;;;9.53;67.62
40982;BME280;26708;50.304;19.028;2023-04-20T01:55:17;98516.16;;;9.53;67.64
40982;BME280;26708;50.304;19.028;2023-04-20T01:57:24;98496.13;;;9.39;67.84
40982;BME280;26708;50.304;19.028;2023-04-20T01:59:29;98498.75;;;9.39;67.79
40982;BME280;26708;50.304;19.028;2023-04-20T02:01:36;98521.38;;;9.55;67.92
40982;BME280;26708;50.304;19.028;2023-04-20T02:03:40;98525.75;;;9.57;67.59
40982;BME280;26708;50.304;19.028;2023-04-20T02:05:45;98521.38;;;9.58;67.67
40982;BME280;26708;50.304;19.028;2023-04-20T02:07:50;98505.69;;;9.47;67.72
40982;BME280;26708;50.304;19.028;2023-04-20T02:09:54;98525.75;;;9.56;67.78
40982;BME280;26708;50.304;19.028;2023-04-20T02:12:00;98523.13;;;9.53;67.67
40982;BME280;26708;50.304;19.028;2023-04-20T02:14:11;98529.22;;;9.53;67.73
40982;BME280;26708;50.304;19.028;2023-04-20T02:16:17;98528.38;;;9.53;67.73
40982;BME280;26708;50.304;19.028;2023-04-20T02:18:22;98524.88;;;9.54;67.59
40982;BME280;26708;50.304;19.028;2023-04-20T02:20:27;98518.75;;;9.52;67.72
40982;BME280;26708;50.304;19.028;2023-04-20T02:22:32;98523.13;;;9.48;67.81
40982;BME280;26708;50.304;19.028;2023-04-20T02:24:38;98471.72;;;9.23;67.98
40982;BME280;26708;50.304;19.028;2023-04-20T02:26:43;98518.75;;;9.52;67.88
40982;BME280;26708;50.304;19.028;2023-04-20T02:28:48;98454.31;;;9.13;67.84
40982;BME280;26708;50.304;19.028;2023-04-20T02:30:56;98495.25;;;9.38;67.85
40982;BME280;26708;50.304;19.028;2023-04-20T02:33:00;98520.50;;;9.54;67.79
40982;BME280;26708;50.304;19.028;2023-04-20T02:35:05;98512.69;;;9.57;67.89
40982;BME280;26708;50.304;19.028;2023-04-20T02:37:11;98382.94;;;8.92;67.43
40982;BME280;26708;50.304;19.028;2023-04-20T02:39:17;98504.84;;;9.62;67.56
40982;BME280;26708;50.304;19.028;2023-04-20T02:41:21;98511.84;;;9.64;67.63
40982;BME280;26708;50.304;19.028;2023-04-20T02:43:26;98517.94;;;9.65;67.52
40982;BME280;26708;50.304;19.028;2023-04-20T02:45:31;98405.59;;;9.03;67.52
40982;BME280;26708;50.304;19.028;2023-04-20T02:47:38;98524.03;;;9.68;67.25
40982;BME280;26708;50.304;19.028;2023-04-20T02:49:45;98520.56;;;9.68;67.28
40982;BME280;26708;50.304;19.028;2023-04-20T02:51:50;98381.22;;;8.91;67.36
40982;BME280;26708;50.304;19.028;2023-04-20T02:53:55;98520.56;;;9.65;67.42
40982;BME280;26708;50.304;19.028;2023-04-20T02:56:04;98526.66;;;9.65;67.46
40982;BME280;26708;50.304;19.028;2023-04-20T02:58:26;98522.31;;;9.67;67.40
40982;BME280;26708;50.304;19.028;2023-04-20T03:01:01;98526.63;;;9.64;67.37
40982;BME280;26708;50.304;19.028;2023-04-20T03:03:12;98523.19;;;9.68;67.42
40982;BME280;26708;50.304;19.028;2023-04-20T03:05:17;98493.53;;;9.49;67.10
40982;BME280;26708;50.304;19.028;2023-04-20T03:07:22;98524.03;;;9.65;67.44
40982;BME280;26708;50.304;19.028;2023-04-20T03:09:28;98516.22;;;9.65;67.39
40982;BME280;26708;50.304;19.028;2023-04-20T03:11:51;98517.09;;;9.64;67.42
40982;BME280;26708;50.304;19.028;2023-04-20T03:14:13;98528.38;;;9.65;67.54
40982;BME280;26708;50.304;19.028;2023-04-20T03:16:19;98497.00;;;9.47;67.50
40982;BME280;26708;50.304;19.028;2023-04-20T03:18:29;98416.84;;;8.93;67.44
40982;BME280;26708;50.304;19.028;2023-04-20T03:20:34;98527.53;;;9.64;67.39
40982;BME280;26708;50.304;19.028;2023-04-20T03:22:39;98524.00;;;9.64;67.30
40982;BME280;26708;50.304;19.028;2023-04-20T03:24:44;98530.97;;;9.60;67.64
40982;BME280;26708;50.304;19.028;2023-04-20T03:27:00;98519.63;;;9.61;67.62
40982;BME280;26708;50.304;19.028;2023-04-20T03:29:25;98526.63;;;9.64;67.41
40982;BME280;26708;50.304;19.028;2023-04-20T03:31:30;98524.03;;;9.65;67.37
40982;BME280;26708;50.304;19.028;2023-04-20T03:33:37;98508.31;;;9.55;67.30
40982;BME280;26708;50.304;19.028;2023-04-20T03:35:42;98524.91;;;9.69;67.24
40982;BME280;26708;50.304;19.028;2023-04-20T03:37:47;98522.31;;;9.67;67.20
40982;BME280;26708;50.304;19.028;2023-04-20T03:39:51;98541.47;;;9.66;67.05
40982;BME280;26708;50.304;19.028;2023-04-20T03:41:57;98537.06;;;9.62;67.13
40982;BME280;26708;50.304;19.028;2023-04-20T03:44:01;98548.38;;;9.58;67.35
40982;BME280;26708;50.304;19.028;2023-04-20T03:46:07;98482.19;;;9.17;67.27
40982;BME280;26708;50.304;19.028;2023-04-20T03:48:12;98510.91;;;9.35;67.54
40982;BME280;26708;50.304;19.028;2023-04-20T03:50:19;98546.63;;;9.51;67.62
40982;BME280;26708;50.304;19.028;2023-04-20T03:52:24;98537.03;;;9.44;67.62
40982;BME280;26708;50.304;19.028;2023-04-20T03:54:29;98537.06;;;9.53;67.50
40982;BME280;26708;50.304;19.028;2023-04-20T03:56:35;98474.31;;;9.08;67.38
40982;BME280;26708;50.304;19.028;2023-04-20T03:58:39;98551.84;;;9.54;67.50
40982;BME280;26708;50.304;19.028;2023-04-20T04:00:48;98551.00;;;9.58;67.47
40982;BME280;26708;50.304;19.028;2023-04-20T04:02:53;98549.28;;;9.62;67.40
40982;BME280;26708;50.304;19.028;2023-04-20T04:05:01;98512.66;;;9.41;67.42
40982;BME280;26708;50.304;19.028;2023-04-20T04:07:10;98487.41;;;9.29;67.35
40982;BME280;26708;50.304;19.028;2023-04-20T04:09:16;98554.53;;;9.69;67.30
40982;BME280;26708;50.304;19.028;2023-04-20T04:11:21;98549.31;;;9.72;67.21
40982;BME280;26708;50.304;19.028;2023-04-20T04:13:26;98524.88;;;9.58;67.07
40982;BME280;26708;50.304;19.028;2023-04-20T04:15:32;98483.91;;;9.30;66.76
40982;BME280;26708;50.304;19.028;2023-04-20T04:17:42;98546.69;;;9.72;67.01
40982;BME280;26708;50.304;19.028;2023-04-20T04:19:48;98461.28;;;9.23;67.04
40982;BME280;26708;50.304;19.028;2023-04-20T04:21:52;98554.53;;;9.75;67.11
40982;BME280;26708;50.304;19.028;2023-04-20T04:24:00;98550.16;;;9.77;66.83
40982;BME280;26708;50.304;19.028;2023-04-20T04:26:11;98549.28;;;9.78;66.92
40982;BME280;26708;50.304;19.028;2023-04-20T04:28:18;98552.78;;;9.77;66.52
40982;BME280;26708;50.304;19.028;2023-04-20T04:30:35;98548.41;;;9.75;66.73
40982;BME280;26708;50.304;19.028;2023-04-20T04:32:42;98526.63;;;9.59;66.64
40982;BME280;26708;50.304;19.028;2023-04-20T04:34:51;98534.44;;;9.58;66.92
40982;BME280;26708;50.304;19.028;2023-04-20T04:36:56;98517.91;;;9.51;66.92
40982;BME280;26708;50.304;19.028;2023-04-20T04:39:16;98561.50;;;9.76;66.53
40982;BME280;26708;50.304;19.028;2023-04-20T04:41:29;98560.59;;;9.71;66.50
40982;BME280;26708;50.304;19.028;2023-04-20T04:43:44;98566.72;;;9.69;66.82
40982;BME280;26708;50.304;19.028;2023-04-20T04:46:07;98545.75;;;9.57;66.98
40982;BME280;26708;50.304;19.028;2023-04-20T04:48:13;98565.84;;;9.68;66.77
40982;BME280;26708;50.304;19.028;2023-04-20T04:50:19;98570.19;;;9.69;66.92
40982;BME280;26708;50.304;19.028;2023-04-20T04:52:24;98566.72;;;9.66;67.06
40982;BME280;26708;50.304;19.028;2023-04-20T04:54:31;98569.34;;;9.78;66.98
40982;BME280;26708;50.304;19.028;2023-04-20T04:56:36;98546.66;;;9.57;66.91
40982;BME280;26708;50.304;19.028;2023-04-20T04:58:41;98581.53;;;9.88;66.73
40982;BME280;26708;50.304;19.028;2023-04-20T05:00:46;98574.56;;;9.94;66.55
40982;BME280;26708;50.304;19.028;2023-04-20T05:02:51;98504.88;;;9.65;66.26
40982;BME280;26708;50.304;19.028;2023-04-20T05:04:56;98566.72;;;10.06;66.05
40982;BME280;26708;50.304;19.028;2023-04-20T05:07:01;98550.16;;;9.97;65.92
40982;BME280;26708;50.304;19.028;2023-04-20T05:09:05;98555.38;;;10.01;65.52
40982;BME280;26708;50.304;19.028;2023-04-20T05:11:13;98523.16;;;9.84;65.34
40982;BME280;26708;50.304;19.028;2023-04-20T05:13:17;98570.22;;;10.14;65.06
40982;BME280;26708;50.304;19.028;2023-04-20T05:15:22;98576.31;;;10.09;65.37
40982;BME280;26708;50.304;19.028;2023-04-20T05:17:28;98574.56;;;10.06;65.19
40982;BME280;26708;50.304;19.028;2023-04-20T05:19:32;98545.84;;;9.88;65.39
40982;BME280;26708;50.304;19.028;2023-04-20T05:21:36;98565.84;;;10.01;65.32
40982;BME280;26708;50.304;19.028;2023-04-20T05:23:42;98577.19;;;10.00;65.64
40982;BME280;26708;50.304;19.028;2023-04-20T05:25:46;98569.34;;;10.06;65.55
40982;BME280;26708;50.304;19.028;2023-04-20T05:27:53;98572.84;;;10.05;65.19
40982;BME280;26708;50.304;19.028;2023-04-20T05:29:59;98423.84;;;9.17;65.36
40982;BME280;26708;50.304;19.028;2023-04-20T05:32:04;98567.59;;;10.11;65.61
40982;BME280;26708;50.304;19.028;2023-04-20T05:34:09;98584.13;;;10.21;65.60
40982;BME280;26708;50.304;19.028;2023-04-20T05:36:14;98584.13;;;10.31;65.25
40982;BME280;26708;50.304;19.028;2023-04-20T05:38:19;98583.25;;;10.40;64.64
40982;BME280;26708;50.304;19.028;2023-04-20T05:40:23;98588.50;;;10.35;63.65
40982;BME280;26708;50.304;19.028;2023-04-20T05:42:29;98590.25;;;10.27;63.79
40982;BME280;26708;50.304;19.028;2023-04-20T05:44:36;98574.56;;;10.06;64.24
40982;BME280;26708;50.304;19.028;2023-04-20T05:46:41;98523.13;;;9.57;64.29
40982;BME280;26708;50.304;19.028;2023-04-20T05:48:46;98574.56;;;9.94;64.33
40982;BME280;26708;50.304;19.028;2023-04-20T05:50:51;98594.63;;;9.95;64.66
40982;BME280;26708;50.304;19.028;2023-04-20T05:52:55;98599.84;;;9.92;64.87
40982;BME280;26708;50.304;19.028;2023-04-20T05:55:01;98469.97;;;9.16;64.50
40982;BME280;26708;50.304;19.028;2023-04-20T05:57:06;98598.13;;;9.84;64.63
40982;BME280;26708;50.304;19.028;2023-04-20T05:59:10;98599.81;;;9.82;64.82
40982;BME280;26708;50.304;19.028;2023-04-20T06:01:21;98576.25;;;9.64;65.19
40982;BME280;26708;50.304;19.028;2023-04-20T06:03:26;98604.19;;;9.84;65.33
40982;BME280;26708;50.304;19.028;2023-04-20T06:05:30;98606.81;;;9.87;64.99
40982;BME280;26708;50.304;19.028;2023-04-20T06:07:36;98607.69;;;9.92;65.02
40982;BME280;26708;50.304;19.028;2023-04-20T06:09:41;98593.75;;;9.87;65.09
40982;BME280;26708;50.304;19.028;2023-04-20T06:11:46;98576.31;;;9.77;64.98
40982;BME280;26708;50.304;19.028;2023-04-20T06:13:51;98535.31;;;9.60;64.92
40982;BME280;26708;50.304;19.028;2023-04-20T06:15:56;98579.81;;;9.88;65.01
40982;BME280;26708;50.304;19.028;2023-04-20T06:18:03;98618.16;;;10.15;64.75
40982;BME280;26708;50.304;19.028;2023-04-20T06:20:10;98526.63;;;9.67;64.41
40982;BME280;26708;50.304;19.028;2023-04-20T06:22:15;98577.19;;;9.96;64.38
40982;BME280;26708;50.304;19.028;2023-04-20T06:24:21;98612.91;;;10.22;64.71
40982;BME280;26708;50.304;19.028;2023-04-20T06:26:26;98607.69;;;10.22;64.58
40982;BME280;26708;50.304;19.028;2023-04-20T06:28:31;98592.00;;;10.15;64.88
40982;BME280;26708;50.304;19.028;2023-04-20T06:30:35;98613.78;;;10.30;64.55
40982;BME280;26708;50.304;19.028;2023-04-20T06:32:41;98516.19;;;9.83;64.68
40982;BME280;26708;50.304;19.028;2023-04-20T06:34:48;98497.91;;;9.80;64.24
40982;BME280;26708;50.304;19.028;2023-04-20T06:36:52;98548.41;;;10.09;63.83
40982;BME280;26708;50.304;19.028;2023-04-20T06:38:58;98605.91;;;10.45;64.10
40982;BME280;26708;50.304;19.028;2023-04-20T06:41:02;98609.41;;;10.44;64.01
40982;BME280;26708;50.304;19.028;2023-04-20T06:43:10;98587.59;;;10.33;64.37
40982;BME280;26708;50.304;19.028;2023-04-20T06:45:15;98558.00;;;10.18;64.10
40982;BME280;26708;50.304;19.028;2023-04-20T06:47:21;98612.91;;;10.48;63.92
40982;BME280;26708;50.304;19.028;2023-04-20T06:49:31;98575.41;;;10.22;63.92
40982;BME280;26708;50.304;19.028;2023-04-20T06:51:40;98619.88;;;10.41;64.17
40982;BME280;26708;50.304;19.028;2023-04-20T06:53:44;98616.41;;;10.41;64.00
40982;BME280;26708;50.304;19.028;2023-04-20T06:55:49;98574.56;;;10.09;64.05
40982;BME280;26708;50.304;19.028;2023-04-20T06:57:54;98594.63;;;10.19;64.44
40982;BME280;26708;50.304;19.028;2023-04-20T06:59:59;98592.84;;;10.29;64.70
40982;BME280;26708;50.304;19.028;2023-04-20T07:02:04;98615.50;;;10.57;64.76
40982;BME280;26708;50.304;19.028;2023-04-20T07:04:09;98549.28;;;10.25;64.33
40982;BME280;26708;50.304;19.028;2023-04-20T07:06:14;98617.19;;;10.91;63.51
40982;BME280;26708;50.304;19.028;2023-04-20T07:08:21;98557.84;;;10.75;63.10
40982;BME280;26708;50.304;19.028;2023-04-20T07:10:26;98608.28;;;11.34;62.65
40982;BME280;26708;50.304;19.028;2023-04-20T07:12:30;98593.31;;;11.54;62.53
40982;BME280;26708;50.304;19.028;2023-04-20T07:14:35;98614.00;;;12.00;61.85
40982;BME280;26708;50.304;19.028;2023-04-20T07:16:40;98612.00;;;12.32;60.50
40982;BME280;26708;50.304;19.028;2023-04-20T07:18:44;98620.53;;;12.55;59.31
40982;BME280;26708;50.304;19.028;2023-04-20T07:20:49;98619.50;;;12.69;58.83
40982;BME280;26708;50.304;19.028;2023-04-20T07:22:54;98619.28;;;12.90;58.85
40982;BME280;26708;50.304;19.028;2023-04-20T07:25:04;98619.03;;;13.16;58.13
40982;BME280;26708;50.304;19.028;2023-04-20T07:27:10;98616.94;;;13.42;57.40
40982;BME280;26708;50.304;19.028;2023-04-20T07:29:15;98614.09;;;13.60;56.50
40982;BME280;26708;50.304;19.028;2023-04-20T07:31:19;98626.19;;;13.71;55.68
40982;BME280;26708;50.304;19.028;2023-04-20T07:33:24;98620.81;;;13.79;55.46
40982;BME280;26708;50.304;19.028;2023-04-20T07:35:30;98554.72;;;13.42;55.06
40982;BME280;26708;50.304;19.028;2023-04-20T07:37:35;98622.41;;;13.89;54.78
40982;BME280;26708;50.304;19.028;2023-04-20T07:39:39;98617.06;;;13.93;54.82
40982;BME280;26708;50.304;19.028;2023-04-20T07:41:47;98602.38;;;13.80;54.59
40982;BME280;26708;50.304;19.028;2023-04-20T07:43:52;98622.41;;;13.90;54.31
40982;BME280;26708;50.304;19.028;2023-04-20T07:45:56;98622.47;;;13.87;53.98
40982;BME280;26708;50.304;19.028;2023-04-20T07:48:02;98526.88;;;13.28;54.34
40982;BME280;26708;50.304;19.028;2023-04-20T07:50:08;98629.41;;;13.91;54.07
40982;BME280;26708;50.304;19.028;2023-04-20T07:52:13;98536.25;;;13.47;54.49
40982;BME280;26708;50.304;19.028;2023-04-20T07:54:19;98604.75;;;13.97;53.32
40982;BME280;26708;50.304;19.028;2023-04-20T07:56:23;98497.09;;;13.26;52.16
40982;BME280;26708;50.304;19.028;2023-04-20T07:58:30;98628.34;;;14.01;52.13
40982;BME280;26708;50.304;19.028;2023-04-20T08:00:36;98603.06;;;13.93;52.59
40982;BME280;26708;50.304;19.028;2023-04-20T08:02:40;98623.09;;;14.01;52.90
40982;BME280;26708;50.304;19.028;2023-04-20T08:04:45;98517.00;;;13.45;52.63
40982;BME280;26708;50.304;19.028;2023-04-20T08:06:50;98616.78;;;14.16;52.68
40982;BME280;26708;50.304;19.028;2023-04-20T08:08:55;98615.72;;;14.26;52.45
40982;BME280;26708;50.304;19.028;2023-04-20T08:10:59;98603.38;;;14.31;51.64
40982;BME280;26708;50.304;19.028;2023-04-20T08:13:05;98604.97;;;14.39;51.73
40982;BME280;26708;50.304;19.028;2023-04-20T08:15:12;98613.66;;;14.44;51.60
40982;BME280;26708;50.304;19.028;2023-04-20T08:17:17;98613.66;;;14.44;51.88
40982;BME280;26708;50.304;19.028;2023-04-20T08:19:22;98611.91;;;14.45;51.50
40982;BME280;26708;50.304;19.028;2023-04-20T08:21:27;98549.22;;;14.15;51.57
40982;BME280;26708;50.304;19.028;2023-04-20T08:23:31;98616.16;;;14.52;51.58
40982;BME280;26708;50.304;19.028;2023-04-20T08:25:38;98590.34;;;14.22;51.83
40982;BME280;26708;50.304;19.028;2023-04-20T08:27:42;98621.22;;;14.62;51.56
40982;BME280;26708;50.304;19.028;2023-04-20T08:29:48;98618.56;;;14.65;50.79
40982;BME280;26708;50.304;19.028;2023-04-20T08:31:56;98624.72;;;14.64;50.88
40982;BME280;26708;50.304;19.028;2023-04-20T08:34:00;98520.41;;;14.04;50.50
40982;BME280;26708;50.304;19.028;2023-04-20T08:36:05;98628.22;;;14.65;50.40
40982;BME280;26708;50.304;19.028;2023-04-20T08:38:10;98617.69;;;14.63;50.99
40982;BME280;26708;50.304;19.028;2023-04-20T08:40:16;98555.25;;;14.21;50.79
40982;BME280;26708;50.304;19.028;2023-04-20T08:42:21;98556.50;;;14.49;50.55
40982;BME280;26708;50.304;19.028;2023-04-20T08:44:27;98617.19;;;14.92;50.41
40982;BME280;26708;50.304;19.028;2023-04-20T08:46:32;98557.97;;;14.64;49.60
40982;BME280;26708;50.304;19.028;2023-04-20T08:48:41;98609.03;;;15.05;49.11
40982;BME280;26708;50.304;19.028;2023-04-20T08:50:49;98518.69;;;14.52;48.19
40982;BME280;26708;50.304;19.028;2023-04-20T08:52:54;98564.16;;;14.61;47.71
40982;BME280;26708;50.304;19.028;2023-04-20T08:54:59;98622.75;;;14.75;48.08
40982;BME280;26708;50.304;19.028;2023-04-20T08:57:05;98615.75;;;14.76;49.14
40982;BME280;26708;50.304;19.028;2023-04-20T08:59:10;98598.50;;;14.57;48.69
40982;BME280;26708;50.304;19.028;2023-04-20T09:01:14;98613.78;;;14.85;49.47
40982;BME280;26708;50.304;19.028;2023-04-20T09:03:32;98614.50;;;14.93;49.51
40982;BME280;26708;50.304;19.028;2023-04-20T09:05:40;98620.59;;;14.97;48.46
40982;BME280;26708;50.304;19.028;2023-04-20T09:07:50;98608.56;;;14.84;48.73
40982;BME280;26708;50.304;19.028;2023-04-20T09:09:59;98584.94;;;14.79;49.27
40982;BME280;26708;50.304;19.028;2023-04-20T09:12:05;98557.03;;;14.68;49.36
40982;BME280;26708;50.304;19.028;2023-04-20T09:14:12;98593.41;;;14.95;48.64
40982;BME280;26708;50.304;19.028;2023-04-20T09:16:18;98613.28;;;15.12;48.71
40982;BME280;26708;50.304;19.028;2023-04-20T09:18:23;98617.56;;;15.18;48.93
40982;BME280;26708;50.304;19.028;2023-04-20T09:20:29;98613.91;;;15.26;48.18
40982;BME280;26708;50.304;19.028;2023-04-20T09:22:37;98613.00;;;15.26;47.66
40982;BME280;26708;50.304;19.028;2023-04-20T09:24:42;98523.84;;;14.58;47.68
40982;BME280;26708;50.304;19.028;2023-04-20T09:26:46;98619.91;;;15.33;48.01
40982;BME280;26708;50.304;19.028;2023-04-20T09:28:52;98622.38;;;15.40;48.19
40982;BME280;26708;50.304;19.028;2023-04-20T09:30:56;98633.69;;;15.47;48.59
40982;BME280;26708;50.304;19.028;2023-04-20T09:33:01;98445.13;;;14.43;46.79
40982;BME280;26708;50.304;19.028;2023-04-20T09:35:09;98613.53;;;15.43;47.71
40982;BME280;26708;50.304;19.028;2023-04-20T09:37:14;98557.84;;;15.15;47.75
40982;BME280;26708;50.304;19.028;2023-04-20T09:39:23;98592.50;;;15.40;48.17
40982;BME280;26708;50.304;19.028;2023-04-20T09:41:30;98613.94;;;15.64;48.00
40982;BME280;26708;50.304;19.028;2023-04-20T09:43:36;98616.66;;;15.61;47.28
40982;BME280;26708;50.304;19.028;2023-04-20T09:45:41;98614.94;;;15.59;47.65
40982;BME280;26708;50.304;19.028;2023-04-20T09:47:48;98613.31;;;15.53;46.32
40982;BME280;26708;50.304;19.028;2023-04-20T09:49:56;98463.97;;;14.66;46.83
40982;BME280;26708;50.304;19.028;2023-04-20T09:52:03;98584.69;;;15.35;47.07
40982;BME280;26708;50.304;19.028;2023-04-20T09:54:09;98579.69;;;15.22;47.64
40982;BME280;26708;50.304;19.028;2023-04-20T09:56:18;98483.00;;;14.36;48.07
40982;BME280;26708;50.304;19.028;2023-04-20T09:58:24;98606.84;;;15.27;48.71
40982;BME280;26708;50.304;19.028;2023-04-20T10:00:30;98594.53;;;15.27;48.15
40982;BME280;26708;50.304;19.028;2023-04-20T10:02:35;98452.97;;;14.46;47.99
40982;BME280;26708;50.304;19.028;2023-04-20T10:04:51;98533.72;;;14.91;47.36
40982;BME280;26708;50.304;19.028;2023-04-20T10:06:57;98535.06;;;14.69;47.09
40982;BME280;26708;50.304;19.028;2023-04-20T10:11:33;98489.78;;;14.49;47.27
40982;BME280;26708;50.304;19.028;2023-04-20T10:13:41;98563.59;;;14.91;47.63
40982;BME280;26708;50.304;19.028;2023-04-20T10:15:46;98549.59;;;14.88;47.57
40982;BME280;26708;50.304;19.028;2023-04-20T10:17:51;98585.84;;;15.22;47.49
40982;BME280;26708;50.304;19.028;2023-04-20T10:19:57;98533.69;;;14.92;46.91
40982;BME280;26708;50.304;19.028;2023-04-20T10:22:01;98577.09;;;15.20;46.90
40982;BME280;26708;50.304;19.028;2023-04-20T10:24:06;98582.41;;;15.17;47.18
40982;BME280;26708;50.304;19.028;2023-04-20T10:26:11;98581.69;;;15.11;47.21
40982;BME280;26708;50.304;19.028;2023-04-20T10:28:19;98583.41;;;15.12;47.78
40982;BME280;26708;50.304;19.028;2023-04-20T10:30:25;98589.69;;;15.06;47.42
40982;BME280;26708;50.304;19.028;2023-04-20T10:32:32;98591.53;;;15.01;47.53
40982;BME280;26708;50.304;19.028;2023-04-20T10:34:36;98585.47;;;14.95;47.98
40982;BME280;26708;50.304;19.028;2023-04-20T10:36:41;98586.31;;;15.00;47.85
40982;BME280;26708;50.304;19.028;2023-04-20T10:38:47;98584.50;;;15.02;48.05
40982;BME280;26708;50.304;19.028;2023-04-20T10:40:51;98506.22;;;14.61;47.97
40982;BME280;26708;50.304;19.028;2023-04-20T10:42:56;98588.00;;;15.02;47.85
40982;BME280;26708;50.304;19.028;2023-04-20T10:45:05;98561.06;;;14.85;48.01
40982;BME280;26708;50.304;19.028;2023-04-20T10:47:10;98577.44;;;15.04;47.81
40982;BME280;26708;50.304;19.028;2023-04-20T10:49:15;98356.16;;;13.69;46.93
40982;BME280;26708;50.304;19.028;2023-04-20T10:51:22;98580.13;;;15.01;46.92
40982;BME280;26708;50.304;19.028;2023-04-20T10:53:28;98506.50;;;14.48;46.86
40982;BME280;26708;50.304;19.028;2023-04-20T10:55:32;98580.41;;;14.86;47.16
40982;BME280;26708;50.304;19.028;2023-04-20T10:57:38;98550.06;;;14.65;47.32
40982;BME280;26708;50.304;19.028;2023-04-20T10:59:42;98578.69;;;14.82;46.96
40982;BME280;26708;50.304;19.028;2023-04-20T11:01:50;98581.41;;;14.79;46.77
40982;BME280;26708;50.304;19.028;2023-04-20T11:03:56;98561.34;;;14.70;46.83
40982;BME280;26708;50.304;19.028;2023-04-20T11:06:01;98581.41;;;14.79;46.83